createdAt,value
2023-04-17T00:01:16.659Z,6.29
2023-04-17T00:06:20.423Z,6.30
2023-04-17T00:11:23.121Z,6.27
2023-04-17T00:16:27.402Z,6.19
2023-04-17T00:21:33.074Z,6.27
2023-04-17T00:26:35.965Z,6.20
2023-04-17T00:31:39.291Z,5.73
2023-04-17T00:36:41.753Z,6.10
2023-04-17T00:41:44.589Z,6.15
2023-04-17T00:46:49.034Z,6.17
2023-04-17T00:51:53.146Z,6.17
2023-04-17T00:56:57.884Z,6.07
2023-04-17T01:02:02.362Z,5.77
2023-04-17T01:07:05.621Z,6.02
2023-04-17T01:12:24.643Z,6.07
2023-04-17T01:17:27.985Z,5.99
2023-04-17T01:22:30.511Z,5.76
2023-04-17T01:27:35.326Z,5.57
2023-04-17T01:32:38.320Z,5.64
2023-04-17T01:37:41.433Z,5.64
2023-04-17T01:42:44.263Z,5.70
2023-04-17T01:47:47.557Z,5.58
2023-04-17T01:52:50.461Z,5.71
2023-04-17T01:57:53.701Z,5.54
2023-04-17T02:02:56.983Z,5.63
2023-04-17T02:07:59.359Z,5.59
2023-04-17T02:13:02.122Z,5.33
2023-04-17T02:18:09.532Z,5.40
2023-04-17T02:23:12.489Z,5.40
2023-04-17T02:28:15.858Z,5.62
2023-04-17T02:33:18.547Z,5.73
2023-04-17T02:38:22.794Z,5.70
2023-04-17T02:43:25.447Z,5.80
2023-04-17T02:48:27.722Z,5.72
2023-04-17T02:53:30.632Z,5.77
2023-04-17T02:58:32.993Z,5.94
2023-04-17T03:03:35.849Z,6.29
2023-04-17T03:08:45.608Z,6.45
2023-04-17T03:13:48.129Z,6.49
2023-04-17T03:18:50.637Z,6.70
2023-04-17T03:23:53.070Z,6.85
2023-04-17T03:28:57.630Z,7.05
2023-04-17T03:34:01.037Z,6.90
2023-04-17T03:39:03.909Z,7.32
2023-04-17T03:44:09.601Z,7.65
2023-04-17T03:49:12.645Z,7.93
2023-04-17T03:54:16.390Z,8.27
2023-04-17T03:59:21.181Z,9.61
2023-04-17T04:04:26.142Z,11.70
2023-04-17T04:09:38.410Z,13.48
2023-04-17T04:14:43.167Z,14.76
2023-04-17T04:19:48.071Z,15.88
2023-04-17T04:24:54.478Z,17.13
2023-04-17T04:30:06.178Z,17.63
2023-04-17T04:35:14.376Z,18.50
2023-04-17T04:40:18.257Z,19.17
2023-04-17T04:45:21.502Z,19.73
2023-04-17T04:50:24.742Z,20.39
2023-04-17T04:55:30.886Z,21.08
2023-04-17T05:00:34.260Z,21.45
2023-04-17T05:05:37.947Z,22.29
2023-04-17T05:10:41.069Z,22.84
2023-04-17T05:15:44.299Z,23.11
2023-04-17T05:20:48.188Z,23.17
2023-04-17T05:25:51.499Z,23.46
2023-04-17T05:30:57.805Z,23.86
2023-04-17T05:36:09.877Z,23.94
2023-04-17T05:41:18.078Z,24.09
2023-04-17T05:46:22.114Z,24.46
2023-04-17T05:51:25.147Z,24.63
2023-04-17T05:56:28.595Z,25.00
2023-04-17T06:01:32.798Z,24.67
2023-04-17T06:06:35.924Z,24.48
2023-04-17T06:11:38.455Z,24.26
2023-04-17T06:16:42.715Z,24.60
2023-04-17T06:21:45.736Z,24.83
2023-04-17T06:26:48.115Z,24.82
2023-04-17T06:31:51.616Z,24.43
2023-04-17T06:36:56.134Z,24.56
2023-04-17T06:41:59.561Z,23.50
2023-04-17T06:47:04.964Z,23.32
2023-04-17T06:52:07.316Z,23.63
2023-04-17T06:57:12.508Z,24.17
2023-04-17T07:02:15.186Z,22.95
2023-04-17T07:07:18.379Z,22.20
2023-04-17T07:12:22.917Z,22.46
2023-04-17T07:17:27.425Z,22.26
2023-04-17T07:22:31.215Z,22.34
2023-04-17T07:27:35.019Z,22.17
2023-04-17T07:32:38.431Z,21.39
2023-04-17T07:37:40.751Z,20.83
2023-04-17T07:42:43.576Z,19.90
2023-04-17T07:47:47.295Z,19.63
2023-04-17T07:52:50.669Z,19.29
2023-04-17T07:57:53.508Z,19.09
2023-04-17T08:02:56.226Z,18.65
2023-04-17T08:08:02.667Z,18.11
2023-04-17T08:13:04.974Z,18.05
2023-04-17T08:18:10.166Z,18.28
2023-04-17T08:23:14.366Z,18.11
2023-04-17T08:28:17.063Z,18.00
2023-04-17T08:33:20.018Z,17.84
2023-04-17T08:38:23.007Z,17.69
2023-04-17T08:43:29.556Z,17.70
2023-04-17T08:48:32.114Z,17.46
2023-04-17T08:53:35.609Z,17.58
2023-04-17T08:58:39.948Z,17.60
2023-04-17T09:03:45.589Z,17.57
2023-04-17T09:08:58.869Z,17.78
2023-04-17T09:14:03.123Z,17.87
2023-04-17T09:19:10.312Z,17.98
2023-04-17T09:24:13.224Z,17.77
2023-04-17T09:29:15.966Z,17.70
2023-04-17T09:34:21.666Z,17.84
2023-04-17T09:39:25.770Z,17.95
2023-04-17T09:44:30.396Z,17.90
2023-04-17T09:49:49.879Z,17.98
2023-04-17T09:54:54.595Z,17.91
2023-04-17T10:00:02.103Z,17.97
2023-04-17T10:05:11.959Z,18.01
2023-04-17T10:10:31.401Z,18.09
2023-04-17T10:15:35.047Z,17.85
2023-04-17T10:20:39.057Z,17.76
2023-04-17T10:25:43.233Z,17.91
2023-04-17T10:30:55.701Z,17.93
2023-04-17T10:35:59.437Z,17.90
2023-04-17T10:41:04.470Z,17.79
2023-04-17T10:46:10.350Z,17.94
2023-04-17T10:51:22.606Z,17.87
2023-04-17T10:56:51.085Z,17.79
2023-04-17T11:01:58.182Z,17.84
2023-04-17T11:07:02.022Z,17.79
2023-04-17T11:12:06.521Z,17.84
2023-04-17T11:17:10.349Z,17.86
2023-04-17T11:22:13.811Z,17.34
2023-04-17T11:27:16.184Z,17.62
2023-04-17T11:32:19.047Z,17.42
2023-04-17T11:37:21.904Z,17.64
2023-04-17T11:42:28.130Z,17.44
2023-04-17T11:47:31.568Z,17.74
2023-04-17T11:52:37.458Z,17.53
2023-04-17T11:57:46.663Z,17.77
2023-04-17T12:02:50.905Z,17.74
2023-04-17T12:08:02.130Z,17.84
2023-04-17T12:13:05.324Z,17.70
2023-04-17T12:18:11.277Z,17.57
2023-04-17T12:23:14.271Z,17.68
2023-04-17T12:28:18.130Z,17.67
2023-04-17T12:33:21.119Z,17.73
2023-04-17T12:38:24.030Z,17.26
2023-04-17T12:43:26.996Z,17.64
2023-04-17T12:48:31.378Z,17.62
2023-04-17T12:53:35.168Z,17.58
2023-04-17T12:58:39.980Z,17.51
2023-04-17T13:03:42.763Z,17.59
2023-04-17T13:08:46.546Z,17.52
2023-04-17T13:13:48.769Z,17.57
2023-04-17T13:18:51.596Z,17.10
2023-04-17T13:23:53.883Z,17.43
2023-04-17T13:28:57.465Z,17.41
2023-04-17T13:33:59.713Z,17.41
2023-04-17T13:39:02.278Z,17.21
2023-04-17T13:44:04.895Z,17.03
2023-04-17T13:49:08.128Z,17.31
2023-04-17T13:54:10.985Z,17.29
2023-04-17T13:59:15.136Z,17.20
2023-04-17T14:04:18.398Z,17.01
2023-04-17T14:09:21.741Z,17.11
2023-04-17T14:14:24.138Z,17.06
2023-04-17T14:19:26.798Z,17.07
2023-04-17T14:24:29.628Z,16.87
2023-04-17T14:29:32.971Z,16.84
2023-04-17T14:34:35.790Z,16.94
2023-04-17T14:39:38.735Z,16.79
2023-04-17T14:44:43.716Z,16.70
2023-04-17T14:49:46.116Z,16.67
2023-04-17T14:54:48.919Z,16.59
2023-04-17T14:59:52.143Z,16.59
2023-04-17T15:04:55.238Z,16.43
2023-04-17T15:09:57.573Z,16.44
2023-04-17T15:14:59.982Z,16.39
2023-04-17T15:20:02.431Z,16.14
2023-04-17T15:25:06.044Z,16.03
2023-04-17T15:30:09.689Z,16.02
2023-04-17T15:35:12.141Z,15.75
2023-04-17T15:40:14.494Z,15.65
2023-04-17T15:45:16.887Z,15.48
2023-04-17T15:50:20.512Z,15.46
2023-04-17T15:55:23.060Z,15.07
2023-04-17T16:00:25.955Z,15.12
2023-04-17T16:05:30.450Z,14.96
2023-04-17T16:10:34.967Z,14.78
2023-04-17T16:15:37.221Z,14.65
2023-04-17T16:20:39.844Z,14.51
2023-04-17T16:25:42.401Z,14.34
2023-04-17T16:30:44.665Z,14.30
2023-04-17T16:35:47.523Z,14.11
2023-04-17T16:40:50.225Z,14.19
2023-04-17T16:45:52.665Z,14.10
2023-04-17T16:50:57.087Z,14.00
2023-04-17T16:55:59.568Z,13.97
2023-04-17T17:01:01.817Z,13.74
2023-04-17T17:06:07.267Z,13.78
2023-04-17T17:11:09.508Z,13.78
2023-04-17T17:16:12.602Z,13.78
2023-04-17T17:21:15.755Z,13.69
2023-04-17T17:26:18.608Z,13.68
2023-04-17T17:31:21.870Z,13.57
2023-04-17T17:36:24.501Z,13.54
2023-04-17T17:41:26.803Z,13.32
2023-04-17T17:46:30.849Z,13.35
2023-04-17T17:51:33.262Z,13.09
2023-04-17T17:56:35.537Z,13.10
2023-04-17T18:01:40.555Z,13.03
2023-04-17T18:06:42.998Z,12.82
2023-04-17T18:11:45.740Z,12.69
2023-04-17T18:16:48.843Z,12.75
2023-04-17T18:21:51.828Z,12.70
2023-04-17T18:26:54.325Z,12.43
2023-04-17T18:31:56.629Z,12.44
2023-04-17T18:37:00.626Z,12.46
2023-04-17T18:42:03.880Z,12.33
2023-04-17T18:47:06.784Z,12.16
2023-04-17T18:52:09.302Z,12.05
2023-04-17T18:57:11.516Z,11.92
2023-04-17T19:02:13.940Z,11.75
2023-04-17T19:07:16.137Z,11.50
2023-04-17T19:12:18.441Z,11.26
2023-04-17T19:17:20.830Z,11.10
2023-04-17T19:22:23.547Z,11.07
2023-04-17T19:27:27.014Z,11.00
2023-04-17T19:32:31.544Z,10.95
2023-04-17T19:37:34.860Z,10.81
2023-04-17T19:42:37.499Z,10.69
2023-04-17T19:47:40.681Z,10.60
2023-04-17T19:52:43.981Z,10.45
2023-04-17T19:57:48.453Z,10.51
2023-04-17T20:02:51.283Z,10.30
2023-04-17T20:07:54.549Z,10.43
2023-04-17T20:12:57.350Z,10.30
2023-04-17T20:18:00.888Z,10.09
2023-04-17T20:23:04.149Z,10.18
2023-04-17T20:28:06.562Z,10.04
2023-04-17T20:33:09.621Z,10.04
2023-04-17T20:38:12.450Z,9.78
2023-04-17T20:43:15.233Z,9.68
2023-04-17T20:48:17.607Z,9.65
2023-04-17T20:53:20.552Z,9.40
2023-04-17T20:58:24.924Z,9.38
2023-04-17T21:03:29.750Z,9.31
2023-04-17T21:08:33.269Z,9.30
2023-04-17T21:13:35.556Z,9.07
2023-04-17T21:18:38.985Z,9.06
2023-04-17T21:23:41.263Z,8.88
2023-04-17T21:28:44.098Z,9.04
2023-04-17T21:33:46.887Z,8.95
2023-04-17T21:38:49.638Z,8.91
2023-04-17T21:43:54.769Z,8.82
2023-04-17T21:48:57.184Z,8.63
2023-04-17T21:54:01.071Z,8.57
2023-04-17T21:59:04.430Z,8.53
2023-04-17T22:04:06.810Z,8.66
2023-04-17T22:09:10.104Z,8.80
2023-04-17T22:14:13.050Z,8.80
2023-04-17T22:19:16.254Z,8.80
2023-04-17T22:24:18.978Z,8.89
2023-04-17T22:29:21.261Z,8.91
2023-04-17T22:34:24.855Z,8.99
2023-04-17T22:39:27.575Z,8.99
2023-04-17T22:44:30.534Z,8.86
2023-04-17T22:49:38.724Z,8.91
2023-04-17T22:54:43.035Z,8.93
2023-04-17T22:59:46.498Z,8.84
2023-04-17T23:04:49.870Z,8.59
2023-04-17T23:09:52.567Z,8.67
2023-04-17T23:14:54.863Z,8.52
2023-04-17T23:19:57.177Z,8.42
2023-04-17T23:25:00.535Z,8.30
2023-04-17T23:30:04.338Z,8.10
2023-04-17T23:35:07.668Z,7.84
2023-04-17T23:40:10.291Z,7.94
2023-04-17T23:45:12.790Z,7.66
2023-04-17T23:50:15.319Z,7.67
2023-04-17T23:55:17.550Z,7.55
